Time;durP1;ratioP1;P1;durP2;ratioP2;P2;SDS_P1;SDS_P2;PMS_P1;PMS_P2;Temp;Humidity;BMP_temperature;BMP_pressure;BME280_temperature;BME280_humidity;BME280_pressure;Samples;Min_cycle;Max_cycle;Signal;HPM_P1;HPM_P2
2023/01/02 00:01:02;289139.00;0.96;499.25;0.00;0.00;0.62;;;;;14.30;1.00;;;;;;2268035;61;1499;-88
2023/01/02 00:03:29;503858.00;1.68;868.47;0.00;0.00;0.62;;;;;14.10;1.00;;;;;;2267672;61;946;-88
2023/01/02 00:05:56;865483.00;2.88;1495.58;52498.00;0.17;91.51;;;;;14.10;1.00;;;;;;2268067;61;1329;-86
2023/01/02 00:08:23;640210.00;2.13;1103.70;89033.00;0.30;154.64;;;;;14.20;1.00;;;;;;2268063;61;1483;-87
2023/01/02 00:10:50;517110.00;1.72;891.29;0.00;0.00;0.62;;;;;14.30;1.00;;;;;;2267727;61;962;-89
2023/01/02 00:13:17;790810.00;2.64;1365.10;64826.00;0.22;112.82;;;;;14.20;1.00;;;;;;2267859;61;2010;-88
2023/01/02 00:15:45;367453.00;1.22;633.86;0.00;0.00;0.62;;;;;14.10;1.00;;;;;;2267654;61;1545;-87
2023/01/02 00:18:12;62880.00;0.21;109.46;0.00;0.00;0.62;;;;;14.10;1.00;;;;;;2267577;61;1123;-87
2023/01/02 00:20:39;234963.00;0.78;406.09;0.00;0.00;0.62;;;;;14.30;1.00;;;;;;2268063;61;1611;-87
2023/01/02 00:23:06;654353.00;2.18;1128.17;13181.00;0.04;23.46;;;;;14.20;1.00;;;;;;2267856;61;1656;-87
2023/01/02 00:25:34;1769622.00;5.90;3161.52;178813.00;0.60;309.45;;;;;14.30;1.00;;;;;;2268203;61;1059;-85
2023/01/02 00:28:02;227841.00;0.76;393.83;89044.00;0.30;154.66;;;;;14.30;1.00;;;;;;2268556;61;964;-87
2023/01/02 00:30:29;120420.00;0.40;208.81;0.00;0.00;0.62;;;;;14.10;1.00;;;;;;2268780;61;962;-88
2023/01/02 00:32:57;188113.00;0.63;325.46;0.00;0.00;0.62;;;;;14.00;1.00;;;;;;2268543;61;2012;-87
2023/01/02 00:35:24;429145.00;1.43;739.92;0.00;0.00;0.62;;;;;14.00;1.00;;;;;;2268907;61;1103;-89
2023/01/02 00:37:52;1422956.00;4.74;2498.97;76243.00;0.25;132.55;;;;;13.90;1.00;;;;;;2268614;61;1652;-87
2023/01/02 00:40:19;428556.00;1.43;738.90;89073.00;0.30;154.71;;;;;14.00;1.00;;;;;;2268610;61;1045;-87
2023/01/02 00:42:46;145043.00;0.48;251.26;0.00;0.00;0.62;;;;;14.10;1.00;;;;;;2268768;61;1387;-87
2023/01/02 00:45:13;208149.00;0.69;359.95;0.00;0.00;0.62;;;;;14.10;1.00;;;;;;2268726;61;1478;-87
2023/01/02 00:47:40;31566.00;0.11;55.29;0.00;0.00;0.62;;;;;14.20;1.00;;;;;;2268874;61;967;-86
2023/01/02 00:50:09;824543.00;2.75;1423.96;64673.00;0.22;112.55;;;;;14.30;1.00;;;;;;2268630;61;1053;-87
2023/01/02 00:52:36;676750.00;2.26;1166.94;95669.00;0.32;166.10;;;;;14.20;1.00;;;;;;2268594;61;2000;-87
2023/01/02 00:55:03;117181216.00;390.60;65177916.00;0.00;0.00;0.62;;;;;14.20;1.00;;;;;;2268646;61;1438;-87
2023/01/02 00:57:30;153435.00;0.51;265.73;0.00;0.00;0.62;;;;;14.20;1.00;;;;;;2268551;61;1015;-87
2023/01/02 00:59:57;974847.00;3.25;1687.97;23794.00;0.08;41.84;;;;;14.10;1.00;;;;;;2268760;61;1588;-86
2023/01/02 01:02:24;1770561.00;5.90;3163.36;262713.00;0.88;453.81;;;;;14.10;1.00;;;;;;2268738;61;1285;-88
2023/01/02 01:04:51;399974.00;1.33;689.76;94277.00;0.31;163.69;;;;;14.00;1.00;;;;;;2268737;61;1020;-86
2023/01/02 01:07:20;281035.00;0.94;485.32;43200.00;0.14;75.42;;;;;13.90;1.00;;;;;;2268596;61;1592;-87
2023/01/02 01:09:47;182954.00;0.61;316.58;0.00;0.00;0.62;;;;;14.00;1.00;;;;;;2268534;61;1096;-87
2023/01/02 01:12:13;1054888.00;3.52;1829.93;1849.00;0.01;3.82;;;;;14.10;1.00;;;;;;2268426;61;2001;-87
2023/01/02 01:14:40;849713.00;2.83;1467.97;27690.00;0.09;48.58;;;;;14.20;1.00;;;;;;2268424;61;1133;-87
2023/01/02 01:17:07;101537.00;0.34;176.22;0.00;0.00;0.62;;;;;14.20;1.00;;;;;;2268572;61;928;-89
2023/01/02 01:19:35;23682.00;0.08;41.65;0.00;0.00;0.62;;;;;14.30;1.00;;;;;;2268579;61;995;-87
2023/01/02 01:22:03;550517.00;1.84;948.85;0.00;0.00;0.62;;;;;14.20;1.00;;;;;;2268380;61;1271;-88
2023/01/02 01:24:31;330931.00;1.10;571.09;0.00;0.00;0.62;;;;;14.10;1.00;;;;;;2268336;61;1834;-86
2023/01/02 01:26:58;1446354.00;4.82;2542.58;98544.00;0.33;171.06;;;;;13.90;1.00;;;;;;2268726;61;1013;-87
2023/01/02 01:29:25;1398702.00;4.66;2453.92;56236.00;0.19;97.97;;;;;13.70;1.00;;;;;;2268600;61;1029;-86
2023/01/02 01:31:52;393024.00;1.31;677.81;85952.00;0.29;149.32;;;;;13.80;1.00;;;;;;2268428;61;1538;-87
2023/01/02 01:34:19;31094.00;0.10;54.48;0.00;0.00;0.62;;;;;14.00;1.00;;;;;;2268528;61;2022;-87
2023/01/02 01:36:49;61805.00;0.21;107.60;0.00;0.00;0.62;;;;;14.10;1.00;;;;;;2268649;61;933;-87
2023/01/02 01:39:16;505738.00;1.69;871.70;0.00;0.00;0.62;;;;;14.10;1.00;;;;;;2268195;61;1242;-86
2023/01/02 01:41:45;2028641.00;6.76;3683.30;172312.00;0.57;298.25;;;;;14.10;1.00;;;;;;2268504;61;1460;-87
2023/01/02 01:44:44;907136.00;3.02;1568.66;123795.00;0.41;214.63;;;;;14.00;1.00;;;;;;2268634;61;1466;-86
2023/01/02 01:47:22;2132501.00;7.11;3900.04;214106.00;0.71;370.20;;;;;14.00;1.00;;;;;;2268511;61;972;-88
2023/01/02 01:49:51;1575351.00;5.25;2785.72;193226.00;0.64;334.26;;;;;14.10;1.00;;;;;;2268531;61;1500;-88
2023/01/02 01:52:24;138261.00;0.46;239.57;0.00;0.00;0.62;;;;;14.10;1.00;;;;;;2268126;61;2004;-88
2023/01/02 01:54:57;402237.00;1.34;693.65;0.00;0.00;0.62;;;;;14.20;1.00;;;;;;2268206;61;1328;-86
2023/01/02 01:57:31;1321400.00;4.40;2311.32;332643.00;1.11;574.03;;;;;14.30;1.00;;;;;;2268332;61;1569;-87
2023/01/02 02:00:00;203514.00;0.68;351.97;0.00;0.00;0.62;;;;;14.50;1.00;;;;;;2268446;61;1446;-86
2023/01/02 02:02:29;227499.00;0.76;393.25;0.00;0.00;0.62;;;;;14.50;1.00;;;;;;2268454;61;1269;-88
2023/01/02 02:05:00;72634.00;0.24;126.31;0.00;0.00;0.62;;;;;14.50;1.00;;;;;;2268530;61;1058;-88
2023/01/02 02:07:28;90691.00;0.30;157.50;0.00;0.00;0.62;;;;;14.50;1.00;;;;;;2268515;61;1441;-88
2023/01/02 02:10:02;239143.00;0.80;413.28;0.00;0.00;0.62;;;;;14.50;1.00;;;;;;2268454;61;1439;-87
2023/01/02 02:12:33;148264.00;0.49;256.82;0.00;0.00;0.62;;;;;14.40;1.00;;;;;;2268515;61;2003;-86
2023/01/02 02:15:00;219078.00;0.73;378.76;0.00;0.00;0.62;;;;;14.20;1.00;;;;;;2268373;61;999;-87
2023/01/02 02:17:36;606034.00;2.02;1044.64;38119.00;0.13;66.63;;;;;14.00;1.00;;;;;;2268486;61;948;-87
2023/01/02 02:20:30;2189278.00;7.30;4020.50;197259.00;0.66;341.21;;;;;13.90;1.00;;;;;;2268508;61;1065;-87
2023/01/02 02:23:34;2088391.00;6.96;3807.43;148115.00;0.49;256.56;;;;;13.80;1.00;;;;;;2268404;61;1306;-87
2023/01/02 02:26:40;1136840.00;3.79;1976.43;55516.00;0.19;96.72;;;;;13.80;1.00;;;;;;2268332;61;1018;-87
2023/01/02 02:29:54;1882501.00;6.28;3385.78;191522.00;0.64;331.33;;;;;14.10;1.00;;;;;;2268292;61;955;-87
2023/01/02 02:32:31;1344845.00;4.48;2354.42;75777.00;0.25;131.74;;;;;14.10;1.00;;;;;;2268385;61;1918;-88
2023/01/02 02:35:08;950742.00;3.17;1645.42;98351.00;0.33;170.73;;;;;14.00;1.00;;;;;;2268398;61;884;-88
2023/01/02 02:37:44;191177.00;0.64;330.73;0.00;0.00;0.62;;;;;13.80;1.00;;;;;;2268441;61;1018;-87
2023/01/02 02:40:19;338268.00;1.13;583.70;1554.00;0.01;3.31;;;;;13.70;1.00;;;;;;2268236;61;937;-87
2023/01/02 02:43:00;198863.00;0.66;343.97;0.00;0.00;0.62;;;;;13.50;1.00;;;;;;2268238;61;1516;-86
2023/01/02 02:45:42;1764246.00;5.88;3150.95;74234.00;0.25;129.08;;;;;13.40;1.00;;;;;;2268352;61;1590;-87
2023/01/02 02:48:17;1797032.00;5.99;3215.55;229037.00;0.76;395.89;;;;;13.60;1.00;;;;;;2268434;61;972;-85
2023/01/02 02:50:52;949008.00;3.16;1642.36;102481.00;0.34;177.85;;;;;13.70;1.00;;;;;;2267867;61;1018;-88
2023/01/02 02:53:24;355127.00;1.18;612.67;96972.00;0.32;168.34;;;;;13.80;1.00;;;;;;2268157;61;2065;-87
2023/01/02 02:55:54;341997.00;1.14;590.11;0.00;0.00;0.62;;;;;14.00;1.00;;;;;;2268022;61;1404;-86
2023/01/02 02:58:22;342415.00;1.14;590.82;0.00;0.00;0.62;;;;;14.20;1.00;;;;;;2268128;61;1590;-86
2023/01/02 03:01:00;228689.00;0.76;395.29;0.00;0.00;0.62;;;;;14.10;1.00;;;;;;2268161;61;1391;-87
2023/01/02 03:03:26;183888.00;0.61;318.18;0.00;0.00;0.62;;;;;14.30;1.00;;;;;;2268010;61;1538;-86
2023/01/02 03:09:05;1312032.00;4.37;2294.14;55045.00;0.18;95.91;;;;;13.90;1.00;;;;;;2268220;61;1821;-87
2023/01/02 03:11:44;849594.00;2.83;1467.76;0.00;0.00;0.62;;;;;13.80;1.00;;;;;;2268067;61;1361;-86
2023/01/02 03:14:22;269243.00;0.90;465.04;86386.00;0.29;150.07;;;;;13.90;1.00;;;;;;2268317;61;1919;-86
2023/01/02 03:16:59;414023.00;1.38;713.91;32194.00;0.11;56.38;;;;;14.00;1.00;;;;;;2268339;61;1019;-88
2023/01/02 03:19:36;362680.00;1.21;625.66;32182.00;0.11;56.36;;;;;14.10;1.00;;;;;;2268349;61;1009;-86
2023/01/02 03:22:08;311748.00;1.04;538.11;62173.00;0.21;108.23;;;;;14.30;1.00;;;;;;2268222;61;1334;-88
2023/01/02 03:24:39;128209.00;0.43;222.24;0.00;0.00;0.62;;;;;14.40;1.00;;;;;;2268176;61;1007;-87
2023/01/02 03:27:11;1014804.00;3.38;1758.71;49846.00;0.17;86.92;;;;;14.40;1.00;;;;;;2268282;61;1491;-88
2023/01/02 03:29:43;2279234.00;7.60;4214.34;232133.00;0.77;401.22;;;;;14.40;1.00;;;;;;2268301;61;900;-86
2023/01/02 03:32:17;332053.00;1.11;573.01;78481.00;0.26;136.41;;;;;14.30;1.00;;;;;;2268173;61;1327;-88
2023/01/02 03:34:48;309660.00;1.03;534.53;89169.00;0.30;154.87;;;;;14.20;1.00;;;;;;2267843;61;2003;-87
2023/01/02 03:37:20;139027.00;0.46;240.89;0.00;0.00;0.62;;;;;14.10;1.00;;;;;;2268261;61;2299;-88
2023/01/02 03:39:53;172316.00;0.57;298.26;0.00;0.00;0.62;;;;;13.90;1.00;;;;;;2268147;61;1064;-88
2023/01/02 03:42:27;699592.00;2.33;1206.53;66616.00;0.22;115.91;;;;;14.00;1.00;;;;;;2268286;61;1426;-84
2023/01/02 03:45:02;1354285.00;4.51;2371.80;148221.00;0.49;256.74;;;;;14.10;1.00;;;;;;2268155;61;1078;-87
2023/01/02 03:47:35;1764522.00;5.88;3151.49;157848.00;0.53;273.33;;;;;14.30;1.00;;;;;;2267906;61;1030;-86
2023/01/02 03:50:10;116616.00;0.39;202.24;0.00;0.00;0.62;;;;;14.30;1.00;;;;;;2268209;61;1064;-86
2023/01/02 03:52:37;139432.00;0.46;241.59;0.00;0.00;0.62;;;;;14.30;1.00;;;;;;2268159;61;1355;-87
2023/01/02 03:55:06;144767.00;0.48;250.79;0.00;0.00;0.62;;;;;14.40;1.00;;;;;;2267931;61;1938;-86
2023/01/02 03:57:45;107090.00;0.36;185.81;0.00;0.00;0.62;;;;;14.60;1.00;;;;;;2268196;61;1072;-88
2023/01/02 04:00:16;995870.00;3.32;1725.16;96063.00;0.32;166.78;;;;;14.70;1.00;;;;;;2268103;61;1604;-87
2023/01/02 04:02:52;743198.00;2.48;1282.23;89622.00;0.30;155.65;;;;;14.90;1.00;;;;;;2267924;61;1619;-88
2023/01/02 04:05:24;165447.00;0.55;286.42;0.00;0.00;0.62;;;;;15.00;1.00;;;;;;2268190;61;1082;-86
2023/01/02 04:07:58;266434.00;0.89;460.21;25396.00;0.08;44.61;;;;;14.90;1.00;;;;;;2268207;61;1536;-86
2023/01/02 04:10:28;206717.00;0.69;357.49;0.00;0.00;0.62;;;;;14.80;1.00;;;;;;2268161;61;1357;-88
2023/01/02 04:13:02;204042.00;0.68;352.88;0.00;0.00;0.62;;;;;14.70;1.00;;;;;;2268063;61;2008;-88
2023/01/02 04:15:33;730401.00;2.43;1260.00;0.00;0.00;0.62;;;;;14.80;1.00;;;;;;2268143;61;936;-88
2023/01/02 04:18:06;346757.00;1.16;598.29;86089.00;0.29;149.55;;;;;14.80;1.00;;;;;;2268133;61;1682;-87
2023/01/02 04:20:39;286436.00;0.95;494.60;78694.00;0.26;136.78;;;;;14.50;1.00;;;;;;2268204;61;1070;-87
2023/01/02 04:23:11;274361.00;0.91;473.84;0.00;0.00;0.62;;;;;14.40;1.00;;;;;;2267897;61;1754;-87
2023/01/02 04:25:44;54994.00;0.18;95.82;0.00;0.00;0.62;;;;;14.20;1.00;;;;;;2268086;61;1015;-87
2023/01/02 04:28:18;131271.00;0.44;227.52;0.00;0.00;0.62;;;;;14.10;1.00;;;;;;2268165;61;980;-86
2023/01/02 04:30:52;1149408.00;3.83;1999.01;40339.00;0.13;70.47;;;;;14.10;1.00;;;;;;2268206;61;977;-87
2023/01/02 04:33:24;603966.00;2.01;1041.07;823.00;0.00;2.05;;;;;14.30;1.00;;;;;;2267798;61;1984;-87
2023/01/02 04:35:51;1938912.00;6.46;3499.64;172254.00;0.57;298.15;;;;;14.10;1.00;;;;;;2268143;61;942;-87
2023/01/02 04:38:18;475021.00;1.58;818.83;88516.00;0.30;153.75;;;;;14.10;1.00;;;;;;2268135;61;1148;-88
2023/01/02 04:40:45;107530.00;0.36;186.57;0.00;0.00;0.62;;;;;14.20;1.00;;;;;;2268103;61;1553;-88
2023/01/02 04:43:18;198290.00;0.66;342.98;0.00;0.00;0.62;;;;;14.40;1.00;;;;;;2267953;61;1345;-86
2023/01/02 04:45:46;233640.00;0.78;403.81;0.00;0.00;0.62;;;;;14.40;1.00;;;;;;2268070;61;1086;-88
2023/01/02 04:48:13;488706.00;1.63;842.38;6364.00;0.02;11.65;;;;;14.20;1.00;;;;;;2267988;61;896;-88
2023/01/02 04:50:42;1141520.00;3.81;1984.84;112681.00;0.38;195.46;;;;;13.90;1.00;;;;;;2267977;61;1078;-89
2023/01/02 04:53:09;1394540.00;4.65;2446.20;57906.00;0.19;100.86;;;;;13.70;1.00;;;;;;2267723;61;2014;-87
2023/01/02 04:55:36;791014.00;2.64;1365.46;25943.00;0.09;45.56;;;;;13.60;1.00;;;;;;2268024;61;1280;-88
2023/01/02 04:58:03;911570.00;3.04;1576.45;30858.00;0.10;54.07;;;;;13.70;1.00;;;;;;2267993;61;1353;-88
2023/01/02 05:00:31;1199463.00;4.00;2089.25;66249.00;0.22;115.28;;;;;13.70;1.00;;;;;;2267923;61;957;-87
2023/01/02 05:02:58;320660.00;1.07;553.43;0.00;0.00;0.62;;;;;13.80;1.00;;;;;;2267835;61;1473;-87
2023/01/02 05:05:25;218034.00;0.73;376.96;0.00;0.00;0.62;;;;;13.90;1.00;;;;;;2267964;61;1016;-86
2023/01/02 05:07:53;232042.00;0.77;401.06;0.00;0.00;0.62;;;;;13.90;1.00;;;;;;2268123;61;897;-89
2023/01/02 05:10:20;1707051.00;5.69;3039.13;107868.00;0.36;187.15;;;;;14.00;1.00;;;;;;2267957;61;1600;-87
2023/01/02 05:12:47;1167505.00;3.89;2031.58;70178.00;0.23;122.07;;;;;13.90;1.00;;;;;;2267988;61;1554;-87
2023/01/02 05:15:14;175195.00;0.58;303.21;0.00;0.00;0.62;;;;;14.00;1.00;;;;;;2268636;61;2031;-87
2023/01/02 05:17:42;163725.00;0.55;283.46;0.00;0.00;0.62;;;;;13.90;1.00;;;;;;2268629;61;1338;-87
2023/01/02 05:20:12;71582.00;0.24;124.49;0.00;0.00;0.62;;;;;13.90;1.00;;;;;;2268575;61;1074;-87
2023/01/02 05:25:25;22503.00;0.08;39.60;0.00;0.00;0.62;;;;;13.90;1.00;;;;;;2268685;61;711;-87
2023/01/02 05:27:53;1747223.00;5.82;3117.55;89032.00;0.30;154.64;;;;;14.00;1.00;;;;;;2268601;61;1083;-87
2023/01/02 05:30:21;1339907.00;4.47;2345.33;65725.00;0.22;114.37;;;;;13.90;1.00;;;;;;2268369;61;1600;-87
2023/01/02 05:32:48;551335.00;1.84;950.26;87386.00;0.29;151.79;;;;;14.00;1.00;;;;;;2268521;61;1317;-87
2023/01/02 05:35:15;415422.00;1.38;716.32;83541.00;0.28;145.15;;;;;14.10;1.00;;;;;;2268525;61;1932;-87
2023/01/02 05:37:43;459976.00;1.53;792.94;95485.00;0.32;165.78;;;;;14.30;1.00;;;;;;2268494;61;1329;-87
2023/01/02 05:40:11;207292.00;0.69;358.47;0.00;0.00;0.62;;;;;14.20;1.00;;;;;;2268534;61;1017;-88
2023/01/02 05:42:39;58863.00;0.20;102.51;0.00;0.00;0.62;;;;;14.40;1.00;;;;;;2268520;61;1570;-89
2023/01/02 05:45:08;88655.00;0.30;153.99;0.00;0.00;0.62;;;;;14.30;1.00;;;;;;2268551;61;968;-88
2023/01/02 05:47:35;82397.00;0.27;143.18;0.00;0.00;0.62;;;;;14.00;1.00;;;;;;2268476;61;1680;-86
2023/01/02 05:50:02;237783.00;0.79;410.94;0.00;0.00;0.62;;;;;13.90;1.00;;;;;;2268579;61;965;-86
2023/01/02 05:52:29;251460.00;0.84;434.46;0.00;0.00;0.62;;;;;13.90;1.00;;;;;;2268490;61;1567;-87
2023/01/02 05:54:56;1321044.00;4.40;2310.67;91598.00;0.31;159.07;;;;;14.00;1.00;;;;;;2268242;61;1985;-86
2023/01/02 05:57:23;1033780.00;3.45;1792.39;131205.00;0.44;227.41;;;;;14.20;1.00;;;;;;2268385;61;1251;-87
2023/01/02 05:59:51;393061.00;1.31;677.88;88418.00;0.29;153.58;;;;;14.10;1.00;;;;;;2268237;61;1548;-87
2023/01/02 06:02:18;544193.00;1.81;937.95;88859.00;0.30;154.34;;;;;13.90;1.00;;;;;;2268448;61;1289;-86
2023/01/02 06:04:47;252273.00;0.84;435.86;92381.00;0.31;160.42;;;;;13.70;1.00;;;;;;2270504;40;3673;-85
2023/01/02 06:07:14;268386.00;0.89;463.57;0.00;0.00;0.62;;;;;13.50;1.00;;;;;;2264048;61;2184;-86
2023/01/02 06:09:41;390261.00;1.30;673.06;0.00;0.00;0.62;;;;;13.40;1.00;;;;;;2263985;61;1104;-88
2023/01/02 06:12:08;241020.00;0.80;416.51;0.00;0.00;0.62;;;;;13.50;1.00;;;;;;2263950;61;1586;-87
2023/01/02 06:14:35;164035.00;0.55;283.99;0.00;0.00;0.62;;;;;13.60;1.00;;;;;;2264100;61;1998;-87
2023/01/02 06:17:03;175607.00;0.59;303.92;0.00;0.00;0.62;;;;;13.80;1.00;;;;;;2264062;61;933;-86
2023/01/02 06:19:30;301236.00;1.00;520.04;0.00;0.00;0.62;;;;;13.90;1.00;;;;;;2263943;56;1137456;-86
2023/01/02 06:21:57;336489.00;1.12;580.64;19540.00;0.07;34.47;;;;;13.80;1.00;;;;;;2268123;61;1605;-87
2023/01/02 06:24:24;1653084.00;5.51;2934.63;176629.00;0.59;305.68;;;;;13.80;1.00;;;;;;2268179;61;993;-87
2023/01/02 06:26:51;573787.00;1.91;988.98;97321.00;0.32;168.95;;;;;13.70;1.00;;;;;;2268383;61;912;-88
2023/01/02 06:29:18;521753.00;1.74;899.28;120355.00;0.40;208.69;;;;;13.70;1.00;;;;;;2268202;61;1735;-87
2023/01/02 06:31:45;175741.00;0.59;304.15;0.00;0.00;0.62;;;;;13.80;1.00;;;;;;2268307;61;1386;-87
2023/01/02 06:34:13;366433.00;1.22;632.11;23406.00;0.08;41.17;;;;;13.80;1.00;;;;;;2268339;61;1998;-86
2023/01/02 06:36:43;289130.00;0.96;499.23;0.00;0.00;0.62;;;;;13.80;1.00;;;;;;2268410;61;893;-87
2023/01/02 06:39:10;307755.00;1.03;531.25;0.00;0.00;0.62;;;;;13.90;1.00;;;;;;2268223;61;1574;-88
2023/01/02 06:41:37;128922.00;0.43;223.47;0.00;0.00;0.62;;;;;14.00;1.00;;;;;;2268276;61;1370;-86
2023/01/02 06:44:04;487077.00;1.62;839.58;36251.00;0.12;63.40;;;;;14.00;1.00;;;;;;2268341;61;1030;-85
2023/01/02 06:46:31;54157.00;0.18;94.37;0.00;0.00;0.62;;;;;14.00;1.00;;;;;;2268245;61;1452;-87
2023/01/02 06:48:58;352365.00;1.17;607.93;0.00;0.00;0.62;;;;;14.00;1.00;;;;;;2268277;61;1650;-87
2023/01/02 06:51:26;72494.00;0.24;126.07;0.00;0.00;0.62;;;;;14.00;1.00;;;;;;2268221;61;1312;-88
2023/01/02 06:53:54;152197.00;0.51;263.59;0.00;0.00;0.62;;;;;14.00;1.00;;;;;;2268348;61;1998;-89
2023/01/02 06:56:21;101586.00;0.34;176.31;0.00;0.00;0.62;;;;;14.00;1.00;;;;;;2268285;61;1503;-87
2023/01/02 06:58:48;1422450.00;4.74;2498.03;63329.00;0.21;110.23;;;;;14.00;1.00;;;;;;2268292;61;935;-86
2023/01/02 07:01:17;2332141.00;7.77;4330.12;189223.00;0.63;327.37;;;;;13.90;1.00;;;;;;2268284;61;1274;-86
2023/01/02 07:03:47;1452936.00;4.84;2554.87;172282.00;0.57;298.20;;;;;13.90;1.00;;;;;;2268132;61;2122;-86
2023/01/02 07:06:16;212654.00;0.71;367.70;0.00;0.00;0.62;;;;;13.70;1.00;;;;;;2267952;61;1561;-86
2023/01/02 07:08:44;279859.00;0.93;483.30;0.00;0.00;0.62;;;;;13.30;1.00;;;;;;2268096;61;1356;-86
2023/01/02 07:11:14;214285.00;0.71;370.51;0.00;0.00;0.62;;;;;12.80;1.00;;;;;;2268178;61;1426;-86
2023/01/02 07:13:44;96835.00;0.32;168.11;0.00;0.00;0.62;;;;;12.70;1.00;;;;;;2268358;61;984;-85
2023/01/02 07:16:13;267597.00;0.89;462.21;0.00;0.00;0.62;;;;;12.70;1.00;;;;;;2268229;61;929;-87
2023/01/02 07:18:40;1353981.00;4.51;2371.24;211408.00;0.70;365.56;;;;;12.80;1.00;;;;;;2268196;61;1435;-88
2023/01/02 07:21:11;348733.00;1.16;601.68;88957.00;0.30;154.51;;;;;13.00;1.00;;;;;;2268321;61;1381;-88
2023/01/02 07:26:13;398857.00;1.33;687.84;85878.00;0.29;149.19;;;;;13.80;1.00;;;;;;2262022;61;1420;-87
2023/01/02 07:28:41;228460.00;0.76;394.90;0.00;0.00;0.62;;;;;13.60;1.00;;;;;;2260250;61;1617;-87
2023/01/02 07:31:11;144282.00;0.48;249.95;0.00;0.00;0.62;;;;;13.60;1.00;;;;;;2260324;61;1268;-87
2023/01/02 07:33:39;314663.00;1.05;543.12;0.00;0.00;0.62;;;;;13.70;1.00;;;;;;2260199;61;1135;-87
2023/01/02 07:38:37;180934.00;0.60;313.10;0.00;0.00;0.62;;;;;13.90;1.00;;;;;;2265786;61;1390;-87
2023/01/02 07:41:04;124338.00;0.41;215.56;0.00;0.00;0.62;;;;;13.90;1.00;;;;;;2264268;61;1366;-87
2023/01/02 07:43:32;124409.00;0.41;215.69;0.00;0.00;0.62;;;;;14.00;1.00;;;;;;2264180;61;1581;-87
2023/01/02 07:46:03;876992.00;2.92;1515.75;52313.00;0.17;91.19;;;;;13.80;1.00;;;;;;2264358;61;923;-88
2023/01/02 07:48:30;2141935.00;7.14;3919.95;158326.00;0.53;274.16;;;;;13.90;1.00;;;;;;2264005;61;1165;-90
2023/01/02 07:51:00;712725.00;2.38;1229.31;86394.00;0.29;150.08;;;;;13.70;1.00;;;;;;2263734;61;1254;-89
2023/01/02 07:53:27;177682.00;0.59;307.50;0.00;0.00;0.62;;;;;13.70;1.00;;;;;;2314820;40;3868;-88
2023/01/02 07:55:55;87009.00;0.29;151.14;0.00;0.00;0.62;;;;;13.70;1.00;;;;;;2267788;61;2009;-88
2023/01/02 07:58:22;435858.00;1.45;751.46;51076.00;0.17;89.05;;;;;13.70;1.00;;;;;;2268122;61;968;-89
2023/01/02 08:00:50;163801.00;0.55;283.59;0.00;0.00;0.62;;;;;13.70;1.00;;;;;;2268093;61;1460;-87
2023/01/02 08:03:18;773094.00;2.58;1334.24;8243.00;0.03;14.91;;;;;13.80;1.00;;;;;;2268011;61;1825;-88
2023/01/02 08:05:50;421459.00;1.40;726.70;80515.00;0.27;139.93;;;;;13.80;1.00;;;;;;2268071;61;1006;-87
2023/01/02 08:16:19;738323.00;2.46;1273.76;0.00;0.00;0.62;;;;;13.80;1.00;;;;;;2266414;61;1949;-89
2023/01/02 08:50:51;183274.00;0.61;317.13;0.00;0.00;0.62;;;;;14.20;1.00;;;;;;2412275;40;3224;31
2023/01/02 09:26:25;564482.00;1.88;972.93;0.00;0.00;0.62;;;;;13.60;1.00;;;;;;797604;40;3413;-88
2023/01/02 09:31:24;256665.00;0.86;443.41;0.00;0.00;0.62;;;;;13.50;1.00;;;;;;2274241;55;3657;-88
2023/01/02 09:36:27;485720.00;1.62;837.24;0.00;0.00;0.62;;;;;13.90;1.00;;;;;;2262433;61;2010;-86
2023/01/02 09:38:55;217880.00;0.73;376.70;0.00;0.00;0.62;;;;;14.20;1.00;;;;;;2272909;40;3589;-87
2023/01/02 09:49:06;441851.00;1.47;761.77;0.00;0.00;0.62;;;;;14.80;1.00;;;;;;1984149;60;2097;-88
2023/01/02 09:59:18;529380.00;1.76;912.42;0.00;0.00;0.62;;;;;15.20;1.00;;;;;;2299985;56;3582;-90
2023/01/02 10:01:59;248421.00;0.83;429.24;0.00;0.00;0.62;;;;;15.40;1.00;;;;;;2361337;55;3720;-89
2023/01/02 10:04:50;400712.00;1.34;691.03;24418.00;0.08;42.92;;;;;15.40;1.00;;;;;;2264296;61;1597;-89
2023/01/02 10:25:03;1354192.00;4.51;2371.63;119554.00;0.40;207.31;;;;;14.60;1.00;;;;;;2285642;56;3614;-86
2023/01/02 10:42:46;502306.00;1.67;865.79;0.00;0.00;0.62;;;;;14.90;1.00;;;;;;2276297;40;3391;-89
2023/01/02 10:45:22;200172.00;0.67;346.22;0.00;0.00;0.62;;;;;15.10;1.00;;;;;;2268079;61;1562;-87
2023/01/02 10:58:08;894718.00;2.98;1546.84;40838.00;0.14;71.34;;;;;15.70;1.00;;;;;;2262083;61;1365;-89
2023/01/02 11:05:49;754951.00;2.52;1302.67;93209.00;0.31;161.85;;;;;16.00;1.00;;;;;;1591575;60;2848;-87
2023/01/02 11:10:48;628311.00;2.09;1083.13;0.00;0.00;0.62;;;;;16.20;1.00;;;;;;2265569;61;1412;-90
2023/01/02 11:13:32;990248.00;3.30;1715.21;50061.00;0.17;87.29;;;;;16.20;1.00;;;;;;2264114;61;1525;-88
2023/01/02 11:23:46;1635856.00;5.45;2901.46;143217.00;0.48;248.12;;;;;16.40;1.00;;;;;;2266106;61;1282;-89
2023/01/02 11:26:24;914970.00;3.05;1582.43;123801.00;0.41;214.64;;;;;16.50;1.00;;;;;;2264163;61;1602;-88
2023/01/02 11:34:09;813787.00;2.71;1405.18;88505.00;0.30;153.73;;;;;16.70;1.00;;;;;;2269816;61;1283;-88
2023/01/02 11:36:52;238840.00;0.80;412.76;82436.00;0.27;143.24;;;;;16.90;1.00;;;;;;2268145;61;1934;-88
2023/01/02 11:50:04;629788.00;2.10;1085.68;88077.00;0.29;152.99;;;;;17.00;1.00;;;;;;2261791;61;1264;-88
2023/01/02 11:52:47;544221.00;1.81;938.00;87041.00;0.29;151.20;;;;;17.30;1.00;;;;;;2259898;61;1656;-88
2023/01/02 11:57:57;125814416.00;419.38;80686952.00;96888.00;0.32;168.20;;;;;17.30;1.00;;;;;;777804;60;1797;-87
2023/01/02 12:00:34;534002.00;1.78;920.39;76771.00;0.26;133.46;;;;;17.50;1.00;;;;;;2260045;61;1699;-87
2023/01/02 12:03:07;403518.00;1.35;695.85;0.00;0.00;0.62;;;;;17.40;1.00;;;;;;2259916;61;1608;-87
2023/01/02 12:05:59;487007.00;1.62;839.46;43341.00;0.14;75.67;;;;;17.60;1.00;;;;;;2284841;55;3752;-88
2023/01/02 12:08:44;795310.00;2.65;1372.95;0.00;0.00;0.62;;;;;17.50;1.00;;;;;;2268908;61;1623;-89
2023/01/02 12:11:27;163467.00;0.54;283.01;0.00;0.00;0.62;;;;;17.30;1.00;;;;;;2267427;61;1553;-86
2023/01/02 12:24:28;286549.00;0.96;494.80;0.00;0.00;0.62;;;;;17.80;1.00;;;;;;752015;40;3218;-88
2023/01/02 12:33:04;126080672.00;420.27;81200808.00;186566.00;0.62;322.80;;;;;18.40;1.00;;;;;;1426175;40;3224;-89
2023/01/02 12:35:55;293641.00;0.98;506.99;0.00;0.00;0.62;;;;;18.80;1.00;;;;;;2246374;61;2021;-89
2023/01/02 12:41:14;1050631.00;3.50;1822.36;118585.00;0.40;205.64;;;;;18.60;1.00;;;;;;2262472;61;1354;-88
2023/01/02 12:44:00;243538.00;0.81;420.84;0.00;0.00;0.62;;;;;19.10;1.00;;;;;;2256455;61;1453;-88
2023/01/02 12:46:47;212790.00;0.71;367.94;0.00;0.00;0.62;;;;;19.40;1.00;;;;;;2267484;40;3602;-89
2023/01/02 12:49:47;419195.00;1.40;722.81;27154.00;0.09;47.66;;;;;19.60;1.00;;;;;;2268636;61;2186;-87
2023/01/02 12:55:11;1169211.00;3.90;2034.65;87822.00;0.29;152.55;;;;;19.40;1.00;;;;;;2262005;61;1891;-89
2023/01/02 13:01:00;614084.00;2.05;1058.54;0.00;0.00;0.62;;;;;19.10;1.00;;;;;;2286243;55;3639;-90
2023/01/02 13:06:16;1036589.00;3.46;1797.38;86915.00;0.29;150.98;;;;;19.20;1.00;;;;;;941960;40;3201;-93
2023/01/02 13:09:03;1182819.00;3.94;2059.19;196216.00;0.65;339.41;;;;;18.90;1.00;;;;;;2268488;61;1443;-88
2023/01/02 13:16:43;1335478.00;4.45;2337.18;198195.00;0.66;342.82;;;;;19.10;1.00;;;;;;1969178;60;1917;-88
2023/01/02 13:19:22;323705.00;1.08;558.67;81485.00;0.27;141.60;;;;;19.60;1.00;;;;;;2260567;61;1486;-86
2023/01/02 13:21:59;723299.00;2.41;1247.67;84196.00;0.28;146.28;;;;;19.80;1.00;;;;;;2291930;40;3615;-88
2023/01/02 13:32:26;913303.00;3.04;1579.50;45872.00;0.15;80.05;;;;;19.80;1.00;;;;;;2256243;56;3808;-88
2023/01/02 13:37:37;553911.00;1.85;954.70;27258.00;0.09;47.84;;;;;20.10;1.00;;;;;;2266160;61;1317;-87
2023/01/02 13:40:21;556523.00;1.86;959.21;50399.00;0.17;87.88;;;;;20.00;1.00;;;;;;2314726;55;3805;-87